sensor_id;sensor_type;location;lat;lon;timestamp;P1;durP1;ratioP1;P2;durP2;ratioP2
30466;SDS011;17258;52.560;13.046;2024-03-17T00:05:48;3.80;;;1.67;;
30466;SDS011;17258;52.560;13.046;2024-03-17T00:15:49;5.75;;;1.77;;
30466;SDS011;17258;52.560;13.046;2024-03-17T00:25:50;6.10;;;1.83;;
30466;SDS011;17258;52.560;13.046;2024-03-17T00:35:51;6.53;;;2.17;;
30466;SDS011;17258;52.560;13.046;2024-03-17T00:45:52;5.45;;;1.60;;
30466;SDS011;17258;52.560;13.046;2024-03-17T00:55:53;5.20;;;2.17;;
30466;SDS011;17258;52.560;13.046;2024-03-17T01:05:58;2.05;;;1.50;;
30466;SDS011;17258;52.560;13.046;2024-03-17T01:15:58;3.90;;;1.88;;
30466;SDS011;17258;52.560;13.046;2024-03-17T01:25:59;3.97;;;1.70;;
30466;SDS011;17258;52.560;13.046;2024-03-17T01:36:02;3.08;;;1.75;;
30466;SDS011;17258;52.560;13.046;2024-03-17T01:46:03;3.95;;;1.88;;
30466;SDS011;17258;52.560;13.046;2024-03-17T01:56:04;4.32;;;1.60;;
30466;SDS011;17258;52.560;13.046;2024-03-17T02:06:05;4.82;;;1.48;;
30466;SDS011;17258;52.560;13.046;2024-03-17T02:16:09;7.10;;;1.67;;
30466;SDS011;17258;52.560;13.046;2024-03-17T02:26:10;3.35;;;1.33;;
30466;SDS011;17258;52.560;13.046;2024-03-17T02:36:11;4.57;;;1.90;;
30466;SDS011;17258;52.560;13.046;2024-03-17T02:46:13;4.20;;;1.75;;
30466;SDS011;17258;52.560;13.046;2024-03-17T02:56:16;4.28;;;1.35;;
30466;SDS011;17258;52.560;13.046;2024-03-17T03:06:18;2.78;;;1.60;;
30466;SDS011;17258;52.560;13.046;2024-03-17T03:16:19;2.58;;;1.17;;
30466;SDS011;17258;52.560;13.046;2024-03-17T03:26:20;7.65;;;1.65;;
30466;SDS011;17258;52.560;13.046;2024-03-17T03:36:21;5.87;;;1.40;;
30466;SDS011;17258;52.560;13.046;2024-03-17T03:46:21;4.53;;;1.55;;
30466;SDS011;17258;52.560;13.046;2024-03-17T03:56:26;5.50;;;1.55;;
30466;SDS011;17258;52.560;13.046;2024-03-17T04:06:26;7.30;;;1.70;;
30466;SDS011;17258;52.560;13.046;2024-03-17T04:16:27;9.73;;;2.03;;
30466;SDS011;17258;52.560;13.046;2024-03-17T04:26:31;5.05;;;1.80;;
30466;SDS011;17258;52.560;13.046;2024-03-17T04:36:32;3.60;;;1.33;;
30466;SDS011;17258;52.560;13.046;2024-03-17T04:46:32;5.53;;;2.00;;
30466;SDS011;17258;52.560;13.046;2024-03-17T04:56:33;6.73;;;1.77;;
30466;SDS011;17258;52.560;13.046;2024-03-17T05:06:34;5.15;;;1.52;;
30466;SDS011;17258;52.560;13.046;2024-03-17T05:16:36;4.15;;;1.67;;
30466;SDS011;17258;52.560;13.046;2024-03-17T05:26:36;7.47;;;2.13;;
30466;SDS011;17258;52.560;13.046;2024-03-17T05:36:37;5.67;;;2.07;;
30466;SDS011;17258;52.560;13.046;2024-03-17T05:46:37;5.63;;;1.90;;
30466;SDS011;17258;52.560;13.046;2024-03-17T05:56:38;5.83;;;1.73;;
30466;SDS011;17258;52.560;13.046;2024-03-17T06:06:39;2.58;;;1.52;;
30466;SDS011;17258;52.560;13.046;2024-03-17T06:16:39;5.83;;;1.77;;
30466;SDS011;17258;52.560;13.046;2024-03-17T06:26:40;5.70;;;2.47;;
30466;SDS011;17258;52.560;13.046;2024-03-17T06:36:44;3.73;;;2.00;;
30466;SDS011;17258;52.560;13.046;2024-03-17T06:46:45;6.35;;;2.15;;
30466;SDS011;17258;52.560;13.046;2024-03-17T06:56:46;7.78;;;2.38;;
30466;SDS011;17258;52.560;13.046;2024-03-17T07:06:47;6.50;;;2.30;;
30466;SDS011;17258;52.560;13.046;2024-03-17T07:16:48;4.82;;;2.47;;
30466;SDS011;17258;52.560;13.046;2024-03-17T07:26:49;12.20;;;2.67;;
30466;SDS011;17258;52.560;13.046;2024-03-17T07:36:50;6.50;;;2.38;;
30466;SDS011;17258;52.560;13.046;2024-03-17T07:46:50;6.77;;;2.43;;
30466;SDS011;17258;52.560;13.046;2024-03-17T07:56:51;10.63;;;2.60;;
30466;SDS011;17258;52.560;13.046;2024-03-17T08:06:52;3.53;;;2.05;;
30466;SDS011;17258;52.560;13.046;2024-03-17T08:16:53;6.07;;;3.53;;
30466;SDS011;17258;52.560;13.046;2024-03-17T08:26:54;5.22;;;3.60;;
30466;SDS011;17258;52.560;13.046;2024-03-17T08:36:54;4.15;;;3.28;;
30466;SDS011;17258;52.560;13.046;2024-03-17T08:46:56;5.35;;;3.22;;
30466;SDS011;17258;52.560;13.046;2024-03-17T08:56:57;9.18;;;2.30;;
30466;SDS011;17258;52.560;13.046;2024-03-17T09:06:58;2.67;;;1.37;;
30466;SDS011;17258;52.560;13.046;2024-03-17T09:17:01;3.28;;;1.70;;
30466;SDS011;17258;52.560;13.046;2024-03-17T09:27:01;3.75;;;1.75;;
30466;SDS011;17258;52.560;13.046;2024-03-17T09:37:05;4.85;;;2.15;;
30466;SDS011;17258;52.560;13.046;2024-03-17T09:47:06;3.90;;;1.90;;
30466;SDS011;17258;52.560;13.046;2024-03-17T09:57:15;5.40;;;1.67;;
30466;SDS011;17258;52.560;13.046;2024-03-17T10:07:17;3.42;;;1.60;;
30466;SDS011;17258;52.560;13.046;2024-03-17T10:17:18;3.90;;;1.93;;
30466;SDS011;17258;52.560;13.046;2024-03-17T10:27:31;5.57;;;2.03;;
30466;SDS011;17258;52.560;13.046;2024-03-17T10:37:32;3.45;;;1.42;;
30466;SDS011;17258;52.560;13.046;2024-03-17T10:47:32;3.30;;;1.77;;
30466;SDS011;17258;52.560;13.046;2024-03-17T11:07:35;5.28;;;1.83;;
30466;SDS011;17258;52.560;13.046;2024-03-17T11:17:37;13.40;;;12.05;;
30466;SDS011;17258;52.560;13.046;2024-03-17T11:27:41;13.03;;;12.27;;
30466;SDS011;17258;52.560;13.046;2024-03-17T11:37:41;13.23;;;12.13;;
30466;SDS011;17258;52.560;13.046;2024-03-17T11:47:43;15.52;;;13.80;;
30466;SDS011;17258;52.560;13.046;2024-03-17T11:57:44;14.88;;;13.98;;
30466;SDS011;17258;52.560;13.046;2024-03-17T12:07:50;15.93;;;14.57;;
30466;SDS011;17258;52.560;13.046;2024-03-17T12:17:56;16.17;;;15.18;;
30466;SDS011;17258;52.560;13.046;2024-03-17T12:27:59;11.98;;;11.27;;
30466;SDS011;17258;52.560;13.046;2024-03-17T12:38:00;12.33;;;11.33;;
30466;SDS011;17258;52.560;13.046;2024-03-17T12:48:01;6.77;;;6.27;;
30466;SDS011;17258;52.560;13.046;2024-03-17T13:08:21;15.80;;;14.63;;
30466;SDS011;17258;52.560;13.046;2024-03-17T13:18:22;13.52;;;12.82;;
30466;SDS011;17258;52.560;13.046;2024-03-17T13:28:31;14.87;;;13.77;;
30466;SDS011;17258;52.560;13.046;2024-03-17T13:38:35;15.35;;;14.40;;
30466;SDS011;17258;52.560;13.046;2024-03-17T13:48:37;15.45;;;14.13;;
30466;SDS011;17258;52.560;13.046;2024-03-17T13:58:41;13.98;;;13.07;;
30466;SDS011;17258;52.560;13.046;2024-03-17T14:08:41;11.93;;;11.17;;
30466;SDS011;17258;52.560;13.046;2024-03-17T14:18:42;14.53;;;13.67;;
30466;SDS011;17258;52.560;13.046;2024-03-17T14:28:43;16.48;;;15.48;;
30466;SDS011;17258;52.560;13.046;2024-03-17T14:38:43;14.27;;;13.17;;
30466;SDS011;17258;52.560;13.046;2024-03-17T14:48:44;11.27;;;10.57;;
30466;SDS011;17258;52.560;13.046;2024-03-17T14:58:45;13.20;;;12.40;;
30466;SDS011;17258;52.560;13.046;2024-03-17T15:08:47;14.45;;;13.45;;
30466;SDS011;17258;52.560;13.046;2024-03-17T15:18:48;16.55;;;15.35;;
30466;SDS011;17258;52.560;13.046;2024-03-17T15:28:51;16.83;;;15.70;;
30466;SDS011;17258;52.560;13.046;2024-03-17T15:38:52;13.32;;;12.52;;
30466;SDS011;17258;52.560;13.046;2024-03-17T15:48:52;11.30;;;10.50;;
30466;SDS011;17258;52.560;13.046;2024-03-17T15:58:54;5.63;;;5.22;;
30466;SDS011;17258;52.560;13.046;2024-03-17T16:08:55;2.65;;;2.53;;
30466;SDS011;17258;52.560;13.046;2024-03-17T16:18:59;8.68;;;3.47;;
30466;SDS011;17258;52.560;13.046;2024-03-17T16:29:01;5.95;;;1.90;;
30466;SDS011;17258;52.560;13.046;2024-03-17T16:39:02;1.30;;;0.95;;
30466;SDS011;17258;52.560;13.046;2024-03-17T16:49:07;2.50;;;2.30;;
30466;SDS011;17258;52.560;13.046;2024-03-17T16:59:13;1.65;;;0.93;;
30466;SDS011;17258;52.560;13.046;2024-03-17T17:09:15;0.80;;;0.80;;
30466;SDS011;17258;52.560;13.046;2024-03-17T17:19:16;0.70;;;0.70;;
30466;SDS011;17258;52.560;13.046;2024-03-17T17:29:16;2.28;;;1.17;;
30466;SDS011;17258;52.560;13.046;2024-03-17T17:39:20;1.02;;;1.02;;
30466;SDS011;17258;52.560;13.046;2024-03-17T17:49:21;7.35;;;1.55;;
30466;SDS011;17258;52.560;13.046;2024-03-17T17:59:22;1.50;;;1.40;;
30466;SDS011;17258;52.560;13.046;2024-03-17T18:09:23;1.50;;;1.40;;
30466;SDS011;17258;52.560;13.046;2024-03-17T18:19:25;1.73;;;1.63;;
30466;SDS011;17258;52.560;13.046;2024-03-17T18:29:28;2.00;;;1.90;;
30466;SDS011;17258;52.560;13.046;2024-03-17T18:39:32;4.63;;;2.63;;
30466;SDS011;17258;52.560;13.046;2024-03-17T18:49:35;3.47;;;3.17;;
30466;SDS011;17258;52.560;13.046;2024-03-17T18:59:37;7.80;;;5.00;;
30466;SDS011;17258;52.560;13.046;2024-03-17T19:09:38;13.73;;;12.33;;
30466;SDS011;17258;52.560;13.046;2024-03-17T19:19:41;6.95;;;6.25;;
30466;SDS011;17258;52.560;13.046;2024-03-17T19:29:42;5.88;;;5.00;;
30466;SDS011;17258;52.560;13.046;2024-03-17T19:39:46;7.07;;;3.47;;
30466;SDS011;17258;52.560;13.046;2024-03-17T19:49:49;4.70;;;3.47;;
30466;SDS011;17258;52.560;13.046;2024-03-17T19:59:51;3.95;;;3.28;;
30466;SDS011;17258;52.560;13.046;2024-03-17T20:09:55;3.22;;;2.67;;
30466;SDS011;17258;52.560;13.046;2024-03-17T20:19:55;2.90;;;2.27;;
30466;SDS011;17258;52.560;13.046;2024-03-17T20:29:56;1.77;;;1.50;;
30466;SDS011;17258;52.560;13.046;2024-03-17T20:39:57;2.58;;;1.83;;
30466;SDS011;17258;52.560;13.046;2024-03-17T20:49:58;2.28;;;1.90;;
30466;SDS011;17258;52.560;13.046;2024-03-17T20:59:58;2.30;;;1.63;;
30466;SDS011;17258;52.560;13.046;2024-03-17T21:10:00;1.42;;;1.30;;
30466;SDS011;17258;52.560;13.046;2024-03-17T21:20:03;1.63;;;1.40;;
30466;SDS011;17258;52.560;13.046;2024-03-17T21:30:07;1.40;;;1.30;;
30466;SDS011;17258;52.560;13.046;2024-03-17T21:40:10;2.03;;;1.83;;
30466;SDS011;17258;52.560;13.046;2024-03-17T21:50:13;2.10;;;1.77;;
30466;SDS011;17258;52.560;13.046;2024-03-17T22:00:17;2.40;;;2.13;;
30466;SDS011;17258;52.560;13.046;2024-03-17T22:10:20;3.17;;;2.30;;
30466;SDS011;17258;52.560;13.046;2024-03-17T22:20:23;2.60;;;2.05;;
30466;SDS011;17258;52.560;13.046;2024-03-17T22:30:23;2.08;;;1.90;;
30466;SDS011;17258;52.560;13.046;2024-03-17T22:40:24;6.10;;;1.60;;
30466;SDS011;17258;52.560;13.046;2024-03-17T22:50:25;1.87;;;1.77;;
30466;SDS011;17258;52.560;13.046;2024-03-17T23:00:25;1.65;;;1.55;;
30466;SDS011;17258;52.560;13.046;2024-03-17T23:10:44;1.98;;;1.73;;
30466;SDS011;17258;52.560;13.046;2024-03-17T23:20:45;1.93;;;1.80;;
30466;SDS011;17258;52.560;13.046;2024-03-17T23:30:46;2.95;;;2.08;;
30466;SDS011;17258;52.560;13.046;2024-03-17T23:40:47;2.47;;;1.93;;
30466;SDS011;17258;52.560;13.046;2024-03-17T23:50:50;2.17;;;1.98;;
